Portada
METAR-TAF:

METAR-TAF

Aeroports :

Chièvres, Bèlgica

latitud: 50-34N, longitud: 003-50E, altitud: 60 m

Observació

L'informe es va fer fa 29 minuts, a les 18:25 UTC
Vent 6 kt del Nord-Est
Temperatura 24°C
Humitat 36%
Pressió 1018 hPa
Visibilitat 10 km o més

METAR: EBCV 011825Z AUTO 04006KT 9999 NCD 24/08 Q1018 BLU

Hora: 20:54 (18:54 UTC)

Pronòstic

L'informe es va fer fa 2 hores i 58 minuts, a les 15:56 UTC
Pronòstic vàlid del 01 a les 19 UTC al 02 a les 07 UTC
Vent 7 kt del Est/Nord-Est
Visibilitat 10 km o més
Cel clar
Temporalment
l' 01 a les 19 UTC al 02 a les 07 UTC
Núvols disperses a una alçada de 7500 ft

TAF: EBCV 011556Z 0119/0207 06007KT 9999 SKC TEMPO 0119/0207 SCT075 BY EBWM

Observacions i pronòstics meteorològics de més de 4000 aeroports (METAR i TAF).

Les estacions disponibles són els punts grocs i vermells al mapa.

Posi el ratolí al punt desitjat per veure el nom de l'estació.

Feu clic per veure les observacions i els pronòstics meteorològics.

Per canviar el mapa: feu clic els botons verds amb una creu de color negre per apropar; al botó verd amb un guió per allunyar la imatge; o en les fletxes verdes per a mapes adjacents.


METAR-TAF: